createdAt,value
2023-05-01T00:01:13.512Z,8.90
2023-05-01T00:03:40.616Z,8.95
2023-05-01T00:06:08.347Z,8.40
2023-05-01T00:08:35.396Z,8.32
2023-05-01T00:11:09.955Z,6.95
2023-05-01T00:13:37.022Z,7.45
2023-05-01T00:16:12.689Z,6.82
2023-05-01T00:18:39.950Z,7.22
2023-05-01T00:21:07.097Z,7.28
2023-05-01T00:23:34.230Z,6.38
2023-05-01T00:26:01.488Z,7.30
2023-05-01T00:28:28.822Z,7.65
2023-05-01T00:30:56.443Z,7.38
2023-05-01T00:33:23.600Z,7.53
2023-05-01T00:35:51.606Z,6.68
2023-05-01T00:38:18.762Z,6.20
2023-05-01T00:40:46.801Z,7.28
2023-05-01T00:43:14.149Z,5.78
2023-05-01T00:45:44.962Z,6.43
2023-05-01T00:48:12.167Z,5.60
2023-05-01T00:50:39.590Z,5.28
2023-05-01T00:53:06.992Z,6.05
2023-05-01T00:55:35.943Z,5.35
2023-05-01T00:58:03.318Z,5.53
2023-05-01T01:00:31.156Z,5.93
2023-05-01T01:02:58.563Z,5.57
2023-05-01T01:05:29.665Z,5.03
2023-05-01T01:08:35.513Z,5.05
2023-05-01T01:11:21.736Z,4.60
2023-05-01T01:14:19.706Z,4.72
2023-05-01T01:17:11.796Z,5.80
2023-05-01T01:20:07.354Z,5.15
2023-05-01T01:22:36.847Z,4.35
2023-05-01T01:25:38.215Z,5.20
2023-05-01T01:28:40.248Z,4.85
2023-05-01T01:31:30.189Z,5.32
2023-05-01T01:34:14.383Z,4.95
2023-05-01T01:36:48.042Z,5.05
2023-05-01T01:39:23.229Z,5.57
2023-05-01T01:41:52.824Z,4.53
2023-05-01T01:44:37.885Z,5.07
2023-05-01T01:47:08.528Z,5.32
2023-05-01T01:49:38.651Z,5.32
2023-05-01T01:52:08.203Z,5.72
2023-05-01T01:54:43.829Z,5.47
2023-05-01T01:57:13.369Z,5.32
2023-05-01T01:59:42.329Z,5.20
2023-05-01T02:02:12.024Z,4.97
2023-05-01T02:04:41.567Z,5.13
2023-05-01T02:07:11.551Z,5.28
2023-05-01T02:09:39.977Z,4.93
2023-05-01T02:12:08.489Z,5.40
2023-05-01T02:14:37.418Z,4.88
2023-05-01T02:17:06.505Z,4.47
2023-05-01T02:19:35.066Z,5.57
2023-05-01T02:22:04.531Z,5.60
2023-05-01T02:24:33.295Z,5.38
2023-05-01T02:27:20.815Z,4.50
2023-05-01T02:29:49.254Z,5.28
2023-05-01T02:32:16.266Z,5.05
2023-05-01T02:34:43.497Z,4.70
2023-05-01T02:37:12.154Z,5.28
2023-05-01T02:39:41.666Z,5.00
2023-05-01T02:42:12.357Z,5.38
2023-05-01T02:44:46.583Z,4.32
2023-05-01T02:47:18.148Z,4.55
2023-05-01T02:49:48.260Z,5.15
2023-05-01T02:52:17.578Z,5.75
2023-05-01T02:54:46.795Z,5.05
2023-05-01T02:57:14.354Z,6.03
2023-05-01T02:59:41.365Z,4.90
2023-05-01T03:02:08.446Z,5.50
2023-05-01T03:04:35.926Z,5.65
2023-05-01T03:07:04.826Z,6.38
2023-05-01T03:09:32.355Z,5.90
2023-05-01T03:11:59.420Z,5.70
2023-05-01T03:14:28.729Z,5.70
2023-05-01T03:16:56.781Z,5.50
2023-05-01T03:19:23.879Z,5.78
2023-05-01T03:21:50.947Z,6.95
2023-05-01T03:24:17.958Z,6.40
2023-05-01T03:26:45.747Z,6.75
2023-05-01T03:29:13.521Z,6.90
2023-05-01T03:31:41.057Z,5.80
2023-05-01T03:34:10.135Z,7.55
2023-05-01T03:36:37.153Z,6.43
2023-05-01T03:39:05.190Z,7.30
2023-05-01T03:41:50.979Z,7.15
2023-05-01T03:44:30.052Z,7.97
2023-05-01T03:46:57.269Z,7.95
2023-05-01T03:49:29.014Z,7.57
2023-05-01T03:51:56.804Z,6.93
2023-05-01T03:54:24.629Z,7.95
2023-05-01T03:56:58.774Z,9.20
2023-05-01T03:59:26.213Z,9.15
2023-05-01T04:01:53.911Z,9.07
2023-05-01T04:04:21.485Z,9.32
2023-05-01T04:06:55.615Z,8.48
2023-05-01T04:09:22.905Z,8.63
2023-05-01T04:11:49.948Z,9.25
2023-05-01T04:14:17.138Z,9.82
2023-05-01T04:16:44.990Z,9.63
2023-05-01T04:19:12.611Z,8.65
2023-05-01T04:21:42.775Z,10.27
2023-05-01T04:24:09.916Z,10.02
2023-05-01T04:26:37.067Z,9.13
2023-05-01T04:29:04.889Z,9.60
2023-05-01T04:31:31.903Z,8.40
2023-05-01T04:33:59.345Z,9.40
2023-05-01T04:36:26.383Z,9.70
2023-05-01T04:38:53.383Z,10.73
2023-05-01T04:41:21.755Z,11.45
2023-05-01T04:43:48.923Z,10.43
2023-05-01T04:46:18.902Z,10.52
2023-05-01T04:48:46.429Z,11.65
2023-05-01T04:51:13.675Z,9.73
2023-05-01T04:53:40.906Z,9.98
2023-05-01T04:56:17.865Z,9.30
2023-05-01T04:58:46.501Z,9.95
2023-05-01T05:01:17.089Z,10.13
2023-05-01T05:03:47.172Z,10.05
2023-05-01T05:06:16.223Z,9.93
2023-05-01T05:08:43.516Z,9.65
2023-05-01T05:11:11.647Z,9.95
2023-05-01T05:13:57.004Z,8.43
2023-05-01T05:16:26.668Z,7.95
2023-05-01T05:18:56.534Z,8.95
2023-05-01T05:21:25.484Z,9.73
2023-05-01T05:23:56.208Z,6.95
2023-05-01T05:26:23.722Z,7.40
2023-05-01T05:28:52.006Z,7.35
2023-05-01T05:31:19.235Z,6.75
2023-05-01T05:33:46.374Z,7.57
2023-05-01T05:36:15.488Z,7.32
2023-05-01T05:38:43.818Z,7.95
2023-05-01T05:41:14.496Z,7.55
2023-05-01T05:43:42.140Z,8.43
2023-05-01T05:46:09.765Z,6.60
2023-05-01T05:48:38.117Z,8.20
2023-05-01T05:51:06.058Z,5.95
2023-05-01T05:53:33.203Z,6.75
2023-05-01T05:56:00.925Z,7.43
2023-05-01T05:58:27.965Z,7.47
2023-05-01T06:00:58.018Z,7.68
2023-05-01T06:03:25.415Z,7.45
2023-05-01T06:05:55.444Z,8.00
2023-05-01T06:08:22.777Z,8.27
2023-05-01T06:10:49.753Z,8.68
2023-05-01T06:13:16.795Z,8.43
2023-05-01T06:15:46.665Z,8.93
2023-05-01T06:18:14.045Z,7.63
2023-05-01T06:20:41.341Z,7.63
2023-05-01T06:23:10.176Z,7.95
2023-05-01T06:26:03.631Z,7.80
2023-05-01T06:28:30.779Z,8.73
2023-05-01T06:30:58.256Z,8.13
2023-05-01T06:33:26.681Z,7.68
2023-05-01T06:36:05.551Z,7.97
2023-05-01T06:38:33.181Z,8.50
2023-05-01T06:41:00.925Z,9.25
2023-05-01T06:43:30.757Z,7.72
2023-05-01T06:45:58.093Z,9.18
2023-05-01T06:48:25.585Z,8.00
2023-05-01T06:50:52.744Z,7.15
2023-05-01T06:53:19.778Z,7.70
2023-05-01T06:55:46.865Z,7.70
2023-05-01T06:58:23.461Z,7.13
2023-05-01T07:00:51.453Z,6.95
2023-05-01T07:03:18.698Z,6.63
2023-05-01T07:05:45.927Z,7.30
2023-05-01T07:08:13.074Z,7.18
2023-05-01T07:10:41.903Z,7.55
2023-05-01T07:13:09.941Z,7.07
2023-05-01T07:15:37.415Z,7.45
2023-05-01T07:18:06.262Z,8.88
2023-05-01T07:20:34.877Z,8.38
2023-05-01T07:23:02.096Z,8.23
2023-05-01T07:25:30.280Z,9.10
2023-05-01T07:27:57.530Z,8.70
2023-05-01T07:30:24.634Z,8.93
2023-05-01T07:32:51.858Z,9.52
2023-05-01T07:35:18.853Z,9.48
2023-05-01T07:37:46.011Z,10.15
2023-05-01T07:40:13.073Z,11.05
2023-05-01T07:42:40.211Z,10.48
2023-05-01T07:45:08.125Z,9.48
2023-05-01T07:47:35.497Z,9.32
2023-05-01T07:50:03.591Z,8.30
2023-05-01T07:52:30.825Z,8.60
2023-05-01T07:54:57.956Z,8.80
2023-05-01T07:57:25.292Z,9.63
2023-05-01T07:59:56.834Z,9.50
2023-05-01T08:02:24.247Z,8.68
2023-05-01T08:04:51.850Z,9.15
2023-05-01T08:07:19.112Z,9.13
2023-05-01T08:09:46.886Z,9.43
2023-05-01T08:12:14.253Z,8.68
2023-05-01T08:14:41.367Z,6.80
2023-05-01T08:17:08.333Z,6.60
2023-05-01T08:19:35.621Z,6.10
2023-05-01T08:22:02.653Z,6.30
2023-05-01T08:24:30.074Z,5.97
2023-05-01T08:26:57.209Z,6.10
2023-05-01T08:29:24.279Z,4.90
2023-05-01T08:31:51.428Z,4.97
2023-05-01T08:34:18.524Z,5.88
2023-05-01T08:36:45.623Z,5.95
2023-05-01T08:39:12.736Z,5.80
2023-05-01T08:41:40.452Z,5.82
2023-05-01T08:44:10.874Z,5.90
2023-05-01T08:47:01.213Z,5.13
2023-05-01T08:49:32.152Z,4.90
2023-05-01T08:52:02.992Z,4.55
2023-05-01T08:54:32.592Z,4.30
2023-05-01T08:57:04.773Z,4.15
2023-05-01T08:59:35.915Z,4.78
2023-05-01T09:02:06.052Z,5.70
2023-05-01T09:04:36.330Z,4.70
2023-05-01T09:07:04.293Z,4.88
2023-05-01T09:09:32.828Z,5.85
2023-05-01T09:12:23.563Z,6.60
2023-05-01T09:14:52.475Z,6.63
2023-05-01T09:17:21.182Z,6.57
2023-05-01T09:19:49.952Z,7.20
2023-05-01T09:22:18.923Z,8.23
2023-05-01T09:24:47.103Z,6.63
2023-05-01T09:27:14.877Z,6.30
2023-05-01T09:29:47.573Z,5.35
2023-05-01T09:32:26.088Z,5.95
2023-05-01T09:34:55.256Z,5.63
2023-05-01T09:37:30.955Z,6.18
2023-05-01T09:40:27.821Z,6.13
2023-05-01T09:42:59.085Z,6.60
2023-05-01T09:45:28.071Z,5.88
2023-05-01T09:48:11.620Z,6.25
2023-05-01T09:50:42.451Z,5.90
2023-05-01T09:53:11.371Z,6.85
2023-05-01T09:55:38.593Z,4.60
2023-05-01T09:58:06.161Z,5.43
2023-05-01T10:00:48.263Z,4.70
2023-05-01T10:03:15.720Z,4.57
2023-05-01T10:05:52.539Z,6.32
2023-05-01T10:08:23.299Z,4.72
2023-05-01T10:11:05.965Z,5.78
2023-05-01T10:13:33.332Z,6.20
2023-05-01T10:16:03.803Z,5.95
2023-05-01T10:18:31.454Z,5.70
2023-05-01T10:20:58.670Z,6.10
2023-05-01T10:23:26.154Z,5.43
2023-05-01T10:25:54.257Z,5.40
2023-05-01T10:28:22.065Z,5.93
2023-05-01T10:30:49.593Z,5.18
2023-05-01T10:33:18.688Z,5.82
2023-05-01T10:35:50.804Z,6.00
2023-05-01T10:38:26.388Z,5.20
2023-05-01T10:40:53.760Z,5.90
2023-05-01T10:43:29.319Z,6.43
2023-05-01T10:46:08.770Z,6.15
2023-05-01T10:48:39.418Z,6.75
2023-05-01T10:51:18.009Z,7.00
2023-05-01T10:53:46.760Z,5.95
2023-05-01T10:56:25.832Z,6.18
2023-05-01T10:58:52.998Z,6.07
2023-05-01T11:01:37.780Z,6.25
2023-05-01T11:04:09.897Z,6.10
2023-05-01T11:06:40.292Z,6.75
2023-05-01T11:09:40.499Z,6.43
2023-05-01T11:12:09.001Z,6.60
2023-05-01T11:14:54.625Z,5.88
2023-05-01T11:17:40.267Z,5.38
2023-05-01T11:20:08.711Z,5.43
2023-05-01T11:22:37.402Z,6.25
2023-05-01T11:25:17.700Z,5.85
2023-05-01T11:27:53.175Z,6.72
2023-05-01T11:30:20.722Z,7.00
2023-05-01T11:32:49.810Z,7.45
2023-05-01T11:35:20.485Z,7.03
2023-05-01T11:37:48.649Z,6.78
2023-05-01T11:40:27.455Z,6.63
2023-05-01T11:43:04.399Z,7.45
2023-05-01T11:45:32.184Z,5.53
2023-05-01T11:48:02.902Z,5.13
2023-05-01T11:50:36.228Z,5.93
2023-05-01T11:53:05.139Z,5.18
2023-05-01T11:55:34.061Z,4.82
2023-05-01T11:58:02.058Z,4.32
2023-05-01T12:00:38.321Z,4.32
2023-05-01T12:03:06.856Z,4.30
2023-05-01T12:05:38.371Z,4.30
2023-05-01T12:08:23.369Z,4.90
2023-05-01T12:10:58.116Z,4.22
2023-05-01T12:13:27.187Z,4.35
2023-05-01T12:15:56.241Z,4.80
2023-05-01T12:18:23.680Z,4.43
2023-05-01T12:20:52.765Z,4.60
2023-05-01T12:23:35.934Z,4.60
2023-05-01T12:26:16.636Z,4.68
2023-05-01T12:29:01.020Z,4.63
2023-05-01T12:31:29.354Z,5.20
2023-05-01T12:33:57.687Z,4.70
2023-05-01T12:36:27.544Z,4.95
2023-05-01T12:39:00.838Z,5.85
2023-05-01T12:41:41.809Z,4.80
2023-05-01T12:44:25.821Z,5.20
2023-05-01T12:47:04.663Z,5.63
2023-05-01T12:49:32.850Z,5.03
2023-05-01T12:52:01.488Z,6.28
2023-05-01T12:54:31.192Z,5.03
2023-05-01T12:57:15.269Z,5.80
2023-05-01T12:59:47.233Z,5.28
2023-05-01T13:02:17.392Z,5.47
2023-05-01T13:04:46.571Z,4.95
2023-05-01T13:07:18.896Z,5.25
2023-05-01T13:09:56.069Z,5.03
2023-05-01T13:12:24.448Z,5.00
2023-05-01T13:14:52.313Z,4.45
2023-05-01T13:17:27.193Z,5.60
2023-05-01T13:19:56.445Z,4.85
2023-05-01T13:22:33.793Z,4.18
2023-05-01T13:25:03.249Z,4.38
2023-05-01T13:27:30.648Z,4.63
2023-05-01T13:30:00.027Z,4.32
2023-05-01T13:32:28.191Z,5.43
2023-05-01T13:34:56.237Z,4.97
2023-05-01T13:37:23.479Z,4.78
2023-05-01T13:39:50.541Z,5.32
2023-05-01T13:42:27.442Z,4.80
2023-05-01T13:44:56.898Z,4.50
2023-05-01T13:47:28.541Z,5.30
2023-05-01T13:49:56.278Z,5.30
2023-05-01T13:52:24.652Z,4.68
2023-05-01T13:54:56.014Z,4.45
2023-05-01T13:57:23.294Z,4.95
2023-05-01T13:59:51.294Z,5.70
2023-05-01T14:02:28.859Z,4.90
2023-05-01T14:04:58.352Z,4.38
2023-05-01T14:07:27.267Z,4.30
2023-05-01T14:09:59.745Z,4.47
2023-05-01T14:12:29.641Z,5.13
2023-05-01T14:14:57.814Z,4.70
2023-05-01T14:17:35.831Z,5.10
2023-05-01T14:20:05.620Z,4.97
2023-05-01T14:22:53.760Z,5.25
2023-05-01T14:25:28.656Z,5.18
2023-05-01T14:27:56.710Z,5.68
2023-05-01T14:30:29.514Z,5.60
2023-05-01T14:32:58.270Z,5.63
2023-05-01T14:35:25.624Z,5.68
2023-05-01T14:37:52.863Z,4.97
2023-05-01T14:40:27.998Z,5.07
2023-05-01T14:42:57.992Z,5.78
2023-05-01T14:45:25.097Z,6.95
2023-05-01T14:47:52.298Z,5.85
2023-05-01T14:50:21.579Z,5.90
2023-05-01T14:52:57.147Z,8.93
2023-05-01T14:55:35.737Z,8.23
2023-05-01T14:58:03.730Z,8.23
2023-05-01T15:00:30.925Z,8.40
2023-05-01T15:02:59.587Z,7.05
2023-05-01T15:05:28.488Z,8.73
2023-05-01T15:08:00.671Z,9.18
2023-05-01T15:10:29.151Z,10.07
2023-05-01T15:12:56.314Z,8.45
2023-05-01T15:15:23.601Z,6.60
2023-05-01T15:17:50.773Z,6.45
2023-05-01T15:20:18.108Z,7.93
2023-05-01T15:22:45.092Z,7.15
2023-05-01T15:25:12.354Z,6.93
2023-05-01T15:27:39.328Z,6.63
2023-05-01T15:30:07.149Z,6.60
2023-05-01T15:32:34.387Z,6.20
2023-05-01T15:35:01.605Z,6.45
2023-05-01T15:37:28.722Z,6.88
2023-05-01T15:39:55.979Z,6.10
2023-05-01T15:42:23.827Z,6.00
2023-05-01T15:44:51.103Z,5.95
2023-05-01T15:47:18.387Z,5.82
2023-05-01T15:49:45.967Z,5.40
2023-05-01T15:52:13.616Z,6.03
2023-05-01T15:54:40.805Z,6.20
2023-05-01T15:57:09.363Z,5.68
2023-05-01T15:59:40.424Z,6.45
2023-05-01T16:02:08.983Z,6.03
2023-05-01T16:04:36.204Z,6.53
2023-05-01T16:07:03.716Z,5.90
2023-05-01T16:09:32.022Z,5.95
2023-05-01T16:12:01.818Z,6.07
2023-05-01T16:14:29.119Z,6.07
2023-05-01T16:16:56.304Z,6.38
2023-05-01T16:19:23.760Z,5.75
2023-05-01T16:21:50.845Z,6.22
2023-05-01T16:24:17.946Z,6.47
2023-05-01T16:26:45.155Z,5.57
2023-05-01T16:29:12.695Z,6.07
2023-05-01T16:31:50.264Z,6.85
2023-05-01T16:34:23.814Z,7.50
2023-05-01T16:36:51.233Z,6.95
2023-05-01T16:39:21.659Z,6.93
2023-05-01T16:41:50.832Z,7.45
2023-05-01T16:44:19.548Z,7.00
2023-05-01T16:46:57.529Z,7.75
2023-05-01T16:49:27.417Z,7.28
2023-05-01T16:52:03.899Z,7.18
2023-05-01T16:54:36.270Z,7.93
2023-05-01T16:57:03.751Z,7.30
2023-05-01T16:59:31.326Z,8.63
2023-05-01T17:01:58.454Z,7.82
2023-05-01T17:04:25.814Z,8.35
2023-05-01T17:06:53.247Z,7.30
2023-05-01T17:09:20.969Z,7.75
2023-05-01T17:11:59.199Z,8.80
2023-05-01T17:14:28.820Z,7.63
2023-05-01T17:16:58.895Z,7.53
2023-05-01T17:19:26.921Z,7.55
2023-05-01T17:21:54.184Z,8.55
2023-05-01T17:24:22.126Z,8.05
2023-05-01T17:26:49.129Z,7.28
2023-05-01T17:29:16.289Z,8.40
2023-05-01T17:31:43.953Z,8.55
2023-05-01T17:34:11.144Z,9.05
2023-05-01T17:36:38.250Z,8.95
2023-05-01T17:39:05.369Z,9.20
2023-05-01T17:41:32.352Z,9.40
2023-05-01T17:43:59.510Z,8.10
2023-05-01T17:46:26.974Z,8.88
2023-05-01T17:48:54.528Z,8.98
2023-05-01T17:51:21.647Z,8.82
2023-05-01T17:53:48.878Z,8.70
2023-05-01T17:56:15.998Z,8.90
2023-05-01T17:58:43.048Z,8.63
2023-05-01T18:01:10.453Z,8.85
2023-05-01T18:03:40.751Z,8.13
2023-05-01T18:06:08.355Z,9.15
2023-05-01T18:08:35.516Z,8.65
2023-05-01T18:11:03.859Z,9.20
2023-05-01T18:13:33.604Z,8.43
2023-05-01T18:16:00.659Z,8.32
2023-05-01T18:18:27.855Z,9.85
2023-05-01T18:20:56.453Z,8.70
2023-05-01T18:23:25.449Z,9.50
2023-05-01T18:25:52.568Z,8.27
2023-05-01T18:28:19.798Z,9.02
2023-05-01T18:30:46.927Z,9.20
2023-05-01T18:33:14.144Z,8.88
2023-05-01T18:35:42.980Z,10.18
2023-05-01T18:38:10.835Z,9.60
2023-05-01T18:40:38.189Z,8.82
2023-05-01T18:43:05.470Z,9.75
2023-05-01T18:45:32.575Z,9.00
2023-05-01T18:48:00.805Z,9.45
2023-05-01T18:50:29.123Z,9.73
2023-05-01T18:52:56.300Z,9.27
2023-05-01T18:55:23.410Z,8.85
2023-05-01T18:57:51.100Z,9.77
2023-05-01T19:00:20.461Z,8.30
2023-05-01T19:02:51.963Z,8.15
2023-05-01T19:05:20.513Z,9.10
2023-05-01T19:07:48.350Z,8.15
2023-05-01T19:10:15.524Z,8.27
2023-05-01T19:12:42.757Z,8.10
2023-05-01T19:15:10.350Z,8.95
2023-05-01T19:17:37.567Z,8.95
2023-05-01T19:20:05.370Z,8.77
2023-05-01T19:22:32.508Z,8.75
2023-05-01T19:25:00.315Z,8.35
2023-05-01T19:27:27.565Z,8.38
2023-05-01T19:29:54.930Z,8.27
2023-05-01T19:32:23.283Z,8.13
2023-05-01T19:34:50.470Z,7.43
2023-05-01T19:37:17.745Z,7.82
2023-05-01T19:39:44.955Z,8.60
2023-05-01T19:42:12.421Z,7.38
2023-05-01T19:44:39.977Z,8.27
2023-05-01T19:47:07.214Z,7.85
2023-05-01T19:49:34.945Z,7.30
2023-05-01T19:52:02.335Z,7.95
2023-05-01T19:54:29.848Z,7.47
2023-05-01T19:56:57.347Z,8.70
2023-05-01T19:59:24.677Z,9.45
2023-05-01T20:01:52.158Z,8.68
2023-05-01T20:04:23.186Z,8.95
2023-05-01T20:06:51.583Z,9.40
2023-05-01T20:09:22.355Z,9.30
2023-05-01T20:11:49.799Z,8.40
2023-05-01T20:14:16.980Z,8.20
2023-05-01T20:16:44.417Z,8.55
2023-05-01T20:19:11.784Z,8.07
2023-05-01T20:21:39.562Z,9.63
2023-05-01T20:24:06.784Z,8.98
2023-05-01T20:26:34.058Z,8.45
2023-05-01T20:29:01.388Z,9.07
2023-05-01T20:31:29.312Z,8.52
2023-05-01T20:33:56.393Z,8.55
2023-05-01T20:36:25.361Z,9.15
2023-05-01T20:38:53.522Z,8.80
2023-05-01T20:41:21.028Z,9.55
2023-05-01T20:43:48.188Z,11.00
2023-05-01T20:46:30.343Z,9.30
2023-05-01T20:48:57.559Z,8.77
2023-05-01T20:51:27.408Z,7.95
2023-05-01T20:53:54.604Z,9.27
2023-05-01T20:56:22.008Z,8.35
2023-05-01T20:58:49.248Z,8.15
2023-05-01T21:01:16.352Z,7.53
2023-05-01T21:03:43.667Z,8.98
2023-05-01T21:06:10.815Z,9.38
2023-05-01T21:08:38.093Z,9.65
2023-05-01T21:11:05.855Z,10.65
2023-05-01T21:13:32.985Z,10.25
2023-05-01T21:16:00.664Z,10.50
2023-05-01T21:18:32.028Z,9.88
2023-05-01T21:21:02.390Z,9.38
2023-05-01T21:23:30.467Z,10.27
2023-05-01T21:25:57.482Z,10.18
2023-05-01T21:28:24.759Z,11.18
2023-05-01T21:30:51.916Z,11.00
2023-05-01T21:33:19.228Z,11.98
2023-05-01T21:35:47.171Z,10.82
2023-05-01T21:38:14.708Z,11.13
2023-05-01T21:40:43.152Z,10.23
2023-05-01T21:43:10.350Z,10.45
2023-05-01T21:45:45.526Z,9.77
2023-05-01T21:48:16.542Z,9.38
2023-05-01T21:50:44.068Z,9.43
2023-05-01T21:53:11.109Z,9.55
2023-05-01T21:55:39.164Z,11.05
2023-05-01T21:58:06.244Z,11.77
2023-05-01T22:00:33.935Z,12.60
2023-05-01T22:03:06.074Z,11.93
2023-05-01T22:05:34.535Z,11.98
2023-05-01T22:08:01.676Z,13.55
2023-05-01T22:10:28.901Z,12.68
2023-05-01T22:12:55.879Z,13.95
2023-05-01T22:15:22.911Z,13.32
2023-05-01T22:17:50.357Z,12.52
2023-05-01T22:20:17.396Z,13.20
2023-05-01T22:22:44.580Z,10.15
2023-05-01T22:25:14.561Z,11.05
2023-05-01T22:27:41.986Z,10.57
2023-05-01T22:30:09.597Z,9.32
2023-05-01T22:32:36.879Z,8.80
2023-05-01T22:35:04.730Z,8.10
2023-05-01T22:37:31.824Z,7.85
2023-05-01T22:39:59.993Z,8.43
2023-05-01T22:42:27.266Z,8.68
2023-05-01T22:44:54.339Z,10.48
2023-05-01T22:47:21.388Z,9.48
2023-05-01T22:49:48.401Z,10.35
2023-05-01T22:52:15.692Z,10.18
2023-05-01T22:54:42.808Z,10.20
2023-05-01T22:57:10.397Z,9.25
2023-05-01T22:59:39.649Z,10.80
2023-05-01T23:02:06.825Z,9.52
2023-05-01T23:04:34.022Z,9.60
2023-05-01T23:07:00.999Z,11.18
2023-05-01T23:09:32.293Z,9.48
2023-05-01T23:11:59.517Z,10.60
2023-05-01T23:14:26.593Z,11.73
2023-05-01T23:16:54.097Z,12.65
2023-05-01T23:19:23.058Z,9.88
2023-05-01T23:22:02.756Z,9.70
2023-05-01T23:24:41.516Z,10.20
2023-05-01T23:27:09.186Z,9.30
2023-05-01T23:29:36.738Z,11.00
2023-05-01T23:32:04.205Z,10.43
2023-05-01T23:34:32.379Z,10.23
2023-05-01T23:36:59.568Z,10.32
2023-05-01T23:39:26.734Z,9.57
2023-05-01T23:41:53.876Z,9.68
2023-05-01T23:44:21.190Z,10.27
2023-05-01T23:46:48.530Z,10.30
2023-05-01T23:49:15.836Z,10.27
2023-05-01T23:51:42.834Z,10.30
2023-05-01T23:54:10.039Z,11.00
2023-05-01T23:56:37.185Z,10.25
2023-05-01T23:59:04.236Z,10.15
